Amado, AZ

8:39 PM MST on July 26, 2016 (GMT -0700)
Elephant Head | | Change Station
Active Advisory: Areal Flood Advisory

Elev 3155 ft 31.74 °N, 111.01 °W | Updated 53 seconds ago

Mostly Cloudy
Mostly Cloudy
82.8 °F
Feels Like 83 °F
N
1.3
Wind Variable Wind from NW
Gusts 2.2 mph

Today
High -- | Low -- °F
--% Chance of Precip.
Yesterday
High -- | Low -- °F
Precip. -- in
Pressure 29.84 in
Visibility 10.0 miles
Clouds Mostly Cloudy 11000 ft
Heat Index 83 °F
Dew Point 60 °F
Humidity 47%
Rainfall 0.00 in
Snow Depth Not available.
5:36 AM 7:24 PM
Waning Gibbous, 48% visible
METAR KOLS 270254Z AUTO 04004KT 10SM BKN110 26/18 A3005 RMK AO2 LTG DSNT N SLP105 T02610178 51024 $
Pressure 29.84 in
Visibility 10.0 miles
Clouds Mostly Cloudy 11000 ft
Heat Index 83 °F
Dew Point 60 °F
Humidity 47%
Rainfall 0.00 in
Snow Depth Not available.
5:36 AM 7:24 PM
Waning Gibbous, 48% visible
METAR KOLS 270254Z AUTO 04004KT 10SM BKN110 26/18 A3005 RMK AO2 LTG DSNT N SLP105 T02610178 51024 $

10-Day Weather Forecast

Almanac

Astronomy

Jul. 26, 2016 Rise Set
Actual Time
Civil Twilight
Nautical Twilight
Astronomical Twilight
Moon
Length of Visible Light
Length of Day
Tomorrow will be .
, % of the Moon is Illuminated

Today's Extremes

State Highs State Lows

Community

WunderPhotos

Upload Photos

1,927,800 photos uploaded!

WunderBlog® & News

Nearby

Air Quality

  Air Quality AQ Index Pollutant
Not available.

Snow Depth

Station Depth Elevation

Earthquake Activity

City Distance Mag. Time & Date
Minimum magnitude displayed is 2.5.

Coastal Water Temperatures

Place Temperature

Stations

Nearby Weather Stations

Station Location Temp. Windchill Dew Point Humidity Wind Precip. Elev Updated Type
                   

Watches & Warnings

Areal Flood Advisory
Issued: 8:02 PM MDT Jul. 26, 2016 – National Weather Service

The National Weather Service in Tucson has issued a

* Urban and Small Stream Flood Advisory for...
east central Pima County in southeastern Arizona...

* until 900 PM MST

* at 759 PM MST... Doppler radar indicated heavy rain due to
thunderstorms. This will cause Urban and Small Stream flooding in
the Sahuarita area and along Sahuarita Road and Nogales
Highway.

* Some locations that will experience flooding include...
Sahuarita... east Sahuarita and Summit.

This includes the following streams and drainages... Box Canyon Wash.

Precautionary/preparedness actions...

Be especially cautious at night when it is harder to recognize the
dangers of flooding.


Lat... Lon 3204 11086 3196 11085 3190 11098 3200 11102


Kd